Allensburg, Ohio
Current Conditions -  °F | °C
As of 7:54 PM on Monday 26 Jan 2015 (Local Time) from KILN Reporting Station
Clear Clear  
Wind Chill: -13°   Ceiling: Unl
Heat Index: -9°   Visibility: 10mi
Dew Point: -13°   Wind: 5mph
Humidity: 77%   Direction: 10°N
Pressure: 29.92"   Gusts: NA
Location:  39.1546°N, 83.569°W
Report Text: KILN 270054Z AUTO 01004KT 10SM CLR M09/M13 A2992 RMK AO2 SLP168 T10941128
Loading
Personal Weather Stations






























Interactive Weather Map New forecast layout! Learn more

10-Day Weather Forecast

Advertisements
Track Severe Weather on mobile